sensor_id;sensor_type;location;lat;lon;timestamp;pressure;altitude;pressure_sealevel;temperature;humidity
37238;BME280;23129;49.662;8.448;2023-03-26T00:02:25;100203.47;;;9.63;100.00
37238;BME280;23129;49.662;8.448;2023-03-26T00:04:57;100203.66;;;9.56;100.00
37238;BME280;23129;49.662;8.448;2023-03-26T00:07:25;100189.84;;;9.51;100.00
37238;BME280;23129;49.662;8.448;2023-03-26T00:09:54;100191.72;;;9.46;100.00
37238;BME280;23129;49.662;8.448;2023-03-26T00:12:24;100192.69;;;9.42;100.00
37238;BME280;23129;49.662;8.448;2023-03-26T00:14:53;100190.22;;;9.37;100.00
37238;BME280;23129;49.662;8.448;2023-03-26T00:17:22;100198.16;;;9.33;100.00
37238;BME280;23129;49.662;8.448;2023-03-26T00:19:51;100198.41;;;9.25;100.00
37238;BME280;23129;49.662;8.448;2023-03-26T00:22:21;100194.19;;;9.20;100.00
37238;BME280;23129;49.662;8.448;2023-03-26T00:24:49;100194.41;;;9.10;100.00
37238;BME280;23129;49.662;8.448;2023-03-26T00:27:18;100184.13;;;9.04;100.00
37238;BME280;23129;49.662;8.448;2023-03-26T00:29:47;100188.66;;;8.98;100.00
37238;BME280;23129;49.662;8.448;2023-03-26T00:32:15;100189.59;;;8.95;100.00
37238;BME280;23129;49.662;8.448;2023-03-26T00:34:44;100200.13;;;8.92;100.00
37238;BME280;23129;49.662;8.448;2023-03-26T00:37:12;100187.06;;;8.90;100.00
37238;BME280;23129;49.662;8.448;2023-03-26T00:39:42;100198.38;;;8.91;100.00
37238;BME280;23129;49.662;8.448;2023-03-26T00:42:15;100191.44;;;8.90;100.00
37238;BME280;23129;49.662;8.448;2023-03-26T00:44:43;100192.34;;;8.89;100.00
37238;BME280;23129;49.662;8.448;2023-03-26T00:47:12;100193.22;;;8.88;100.00
37238;BME280;23129;49.662;8.448;2023-03-26T00:49:41;100188.00;;;8.88;100.00
37238;BME280;23129;49.662;8.448;2023-03-26T00:52:13;100192.38;;;8.87;100.00
37238;BME280;23129;49.662;8.448;2023-03-26T00:54:46;100187.19;;;8.86;100.00
37238;BME280;23129;49.662;8.448;2023-03-26T00:57:15;100178.53;;;8.84;100.00
37238;BME280;23129;49.662;8.448;2023-03-26T01:00:01;100174.19;;;8.83;100.00
37238;BME280;23129;49.662;8.448;2023-03-26T01:02:41;100170.75;;;8.81;100.00
37238;BME280;23129;49.662;8.448;2023-03-26T01:05:42;100159.47;;;8.79;100.00
37238;BME280;23129;49.662;8.448;2023-03-26T01:08:23;100163.84;;;8.78;100.00
37238;BME280;23129;49.662;8.448;2023-03-26T01:10:54;100152.53;;;8.78;100.00
37238;BME280;23129;49.662;8.448;2023-03-26T01:13:32;100162.16;;;8.76;100.00
37238;BME280;23129;49.662;8.448;2023-03-26T01:16:02;100151.69;;;8.76;100.00
37238;BME280;23129;49.662;8.448;2023-03-26T01:18:34;100155.25;;;8.73;100.00
37238;BME280;23129;49.662;8.448;2023-03-26T01:21:07;100151.78;;;8.73;100.00
37238;BME280;23129;49.662;8.448;2023-03-26T01:23:44;100151.78;;;8.73;100.00
37238;BME280;23129;49.662;8.448;2023-03-26T01:26:28;100142.22;;;8.72;100.00
37238;BME280;23129;49.662;8.448;2023-03-26T01:29:02;100144.75;;;8.75;100.00
37238;BME280;23129;49.662;8.448;2023-03-26T01:31:40;100142.97;;;8.77;100.00
37238;BME280;23129;49.662;8.448;2023-03-26T01:34:17;100140.28;;;8.80;100.00
37238;BME280;23129;49.662;8.448;2023-03-26T01:36:54;100138.47;;;8.82;100.00
37238;BME280;23129;49.662;8.448;2023-03-26T01:39:30;100134.91;;;8.84;100.00
37238;BME280;23129;49.662;8.448;2023-03-26T01:42:05;100124.44;;;8.86;100.00
37238;BME280;23129;49.662;8.448;2023-03-26T01:44:40;100115.66;;;8.88;100.00
37238;BME280;23129;49.662;8.448;2023-03-26T01:47:12;100097.28;;;8.90;100.00
37238;BME280;23129;49.662;8.448;2023-03-26T01:49:41;100090.34;;;8.89;100.00
37238;BME280;23129;49.662;8.448;2023-03-26T01:52:14;100085.13;;;8.89;100.00
37238;BME280;23129;49.662;8.448;2023-03-26T01:54:43;100093.81;;;8.89;100.00
37238;BME280;23129;49.662;8.448;2023-03-26T01:57:19;100090.34;;;8.89;100.00
37238;BME280;23129;49.662;8.448;2023-03-26T02:00:10;100079.97;;;8.86;100.00
37238;BME280;23129;49.662;8.448;2023-03-26T02:03:00;100084.38;;;8.84;100.00
37238;BME280;23129;49.662;8.448;2023-03-26T02:05:36;100081.75;;;8.84;100.00
37238;BME280;23129;49.662;8.448;2023-03-26T02:08:12;100069.63;;;8.81;100.00
37238;BME280;23129;49.662;8.448;2023-03-26T02:10:50;100071.38;;;8.81;100.00
37238;BME280;23129;49.662;8.448;2023-03-26T02:13:21;100069.69;;;8.80;100.00
37238;BME280;23129;49.662;8.448;2023-03-26T02:15:58;100063.66;;;8.76;100.00
37238;BME280;23129;49.662;8.448;2023-03-26T02:18:27;100064.53;;;8.77;100.00
37238;BME280;23129;49.662;8.448;2023-03-26T02:21:05;100048.94;;;8.74;100.00
37238;BME280;23129;49.662;8.448;2023-03-26T02:23:39;100050.63;;;8.75;100.00
37238;BME280;23129;49.662;8.448;2023-03-26T02:26:09;100044.56;;;8.74;100.00
37238;BME280;23129;49.662;8.448;2023-03-26T02:28:52;100039.31;;;8.74;100.00
37238;BME280;23129;49.662;8.448;2023-03-26T02:31:20;100033.16;;;8.77;100.00
37238;BME280;23129;49.662;8.448;2023-03-26T02:33:53;100039.25;;;8.77;100.00
37238;BME280;23129;49.662;8.448;2023-03-26T02:36:24;100028.72;;;8.79;100.00
37238;BME280;23129;49.662;8.448;2023-03-26T02:38:57;100026.09;;;8.79;100.00
37238;BME280;23129;49.662;8.448;2023-03-26T02:41:28;100020.88;;;8.79;100.00
37238;BME280;23129;49.662;8.448;2023-03-26T02:44:04;100016.50;;;8.79;100.00
37238;BME280;23129;49.662;8.448;2023-03-26T02:46:53;100013.84;;;8.81;100.00
37238;BME280;23129;49.662;8.448;2023-03-26T02:49:40;100002.53;;;8.80;100.00
37238;BME280;23129;49.662;8.448;2023-03-26T02:52:12;100008.63;;;8.81;100.00
37238;BME280;23129;49.662;8.448;2023-03-26T02:54:46;100003.31;;;8.84;100.00
37238;BME280;23129;49.662;8.448;2023-03-26T02:57:19;99997.22;;;8.83;100.00
37238;BME280;23129;49.662;8.448;2023-03-26T03:00:02;99994.56;;;8.85;100.00
37238;BME280;23129;49.662;8.448;2023-03-26T03:02:46;99984.09;;;8.85;100.00
37238;BME280;23129;49.662;8.448;2023-03-26T03:05:27;99984.09;;;8.85;100.00
37238;BME280;23129;49.662;8.448;2023-03-26T03:08:18;99984.06;;;8.86;100.00
37238;BME280;23129;49.662;8.448;2023-03-26T03:11:14;99977.06;;;8.87;100.00
37238;BME280;23129;49.662;8.448;2023-03-26T03:13:45;99973.53;;;8.88;100.00
37238;BME280;23129;49.662;8.448;2023-03-26T03:16:34;99963.09;;;8.88;100.00
37238;BME280;23129;49.662;8.448;2023-03-26T03:19:06;99954.38;;;8.89;100.00
37238;BME280;23129;49.662;8.448;2023-03-26T03:21:39;99951.75;;;8.89;100.00
37238;BME280;23129;49.662;8.448;2023-03-26T03:24:08;99948.22;;;8.90;100.00
37238;BME280;23129;49.662;8.448;2023-03-26T03:26:41;99943.00;;;8.90;100.00
37238;BME280;23129;49.662;8.448;2023-03-26T03:29:30;99928.22;;;8.89;100.00
37238;BME280;23129;49.662;8.448;2023-03-26T03:32:19;99933.44;;;8.89;100.00
37238;BME280;23129;49.662;8.448;2023-03-26T03:34:51;99935.16;;;8.90;100.00
37238;BME280;23129;49.662;8.448;2023-03-26T03:37:20;99929.00;;;8.91;100.00
37238;BME280;23129;49.662;8.448;2023-03-26T03:39:53;99920.31;;;8.90;100.00
37238;BME280;23129;49.662;8.448;2023-03-26T03:42:24;99926.38;;;8.91;100.00
37238;BME280;23129;49.662;8.448;2023-03-26T03:44:56;99919.44;;;8.90;100.00
37238;BME280;23129;49.662;8.448;2023-03-26T03:47:46;99922.03;;;8.91;100.00
37238;BME280;23129;49.662;8.448;2023-03-26T03:50:19;99926.38;;;8.91;100.00
37238;BME280;23129;49.662;8.448;2023-03-26T03:53:03;99919.44;;;8.90;100.00
37238;BME280;23129;49.662;8.448;2023-03-26T03:55:33;99909.00;;;8.90;100.00
37238;BME280;23129;49.662;8.448;2023-03-26T03:58:04;99915.06;;;8.90;100.00
37238;BME280;23129;49.662;8.448;2023-03-26T04:00:35;99901.13;;;8.90;100.00
37238;BME280;23129;49.662;8.448;2023-03-26T04:03:28;99895.91;;;8.90;100.00
37238;BME280;23129;49.662;8.448;2023-03-26T04:06:01;99889.88;;;8.88;100.00
37238;BME280;23129;49.662;8.448;2023-03-26T04:08:33;99878.56;;;8.87;100.00
37238;BME280;23129;49.662;8.448;2023-03-26T04:11:04;99885.56;;;8.85;100.00
37238;BME280;23129;49.662;8.448;2023-03-26T04:13:51;99870.88;;;8.83;100.00
37238;BME280;23129;49.662;8.448;2023-03-26T04:16:31;99872.75;;;8.78;100.00
37238;BME280;23129;49.662;8.448;2023-03-26T04:19:01;99863.38;;;8.71;100.00
37238;BME280;23129;49.662;8.448;2023-03-26T04:21:31;99857.53;;;8.62;100.00
37238;BME280;23129;49.662;8.448;2023-03-26T04:24:04;99862.06;;;8.56;100.00
37238;BME280;23129;49.662;8.448;2023-03-26T04:26:58;99850.06;;;8.49;100.00
37238;BME280;23129;49.662;8.448;2023-03-26T04:29:39;99845.00;;;8.42;100.00
37238;BME280;23129;49.662;8.448;2023-03-26T04:32:21;99834.66;;;8.39;100.00
37238;BME280;23129;49.662;8.448;2023-03-26T04:34:52;99823.34;;;8.37;100.00
37238;BME280;23129;49.662;8.448;2023-03-26T04:37:26;99812.97;;;8.36;100.00
37238;BME280;23129;49.662;8.448;2023-03-26T04:40:11;99810.34;;;8.36;100.00
37238;BME280;23129;49.662;8.448;2023-03-26T04:43:04;99827.03;;;8.32;100.00
37238;BME280;23129;49.662;8.448;2023-03-26T04:45:53;99797.56;;;8.27;100.00
37238;BME280;23129;49.662;8.448;2023-03-26T04:48:25;99808.84;;;8.27;100.00
37238;BME280;23129;49.662;8.448;2023-03-26T04:50:55;99807.16;;;8.26;100.00
37238;BME280;23129;49.662;8.448;2023-03-26T04:53:24;99794.09;;;8.26;100.00
37238;BME280;23129;49.662;8.448;2023-03-26T04:56:08;99790.53;;;8.29;100.00
37238;BME280;23129;49.662;8.448;2023-03-26T04:59:00;99800.06;;;8.30;100.00
37238;BME280;23129;49.662;8.448;2023-03-26T05:01:32;99794.78;;;8.31;100.00
37238;BME280;23129;49.662;8.448;2023-03-26T05:04:06;99796.47;;;8.34;100.00
37238;BME280;23129;49.662;8.448;2023-03-26T05:06:35;99785.13;;;8.35;100.00
37238;BME280;23129;49.662;8.448;2023-03-26T05:09:11;99781.59;;;8.36;100.00
37238;BME280;23129;49.662;8.448;2023-03-26T05:12:10;99771.09;;;8.39;100.00
37238;BME280;23129;49.662;8.448;2023-03-26T05:14:50;99765.88;;;8.39;100.00
37238;BME280;23129;49.662;8.448;2023-03-26T05:17:28;99754.50;;;8.40;100.00
37238;BME280;23129;49.662;8.448;2023-03-26T05:20:01;99753.63;;;8.41;100.00
37238;BME280;23129;49.662;8.448;2023-03-26T05:22:31;99750.94;;;8.42;100.00
37238;BME280;23129;49.662;8.448;2023-03-26T05:25:13;99740.47;;;8.44;100.00
37238;BME280;23129;49.662;8.448;2023-03-26T05:27:43;99740.41;;;8.45;100.00
37238;BME280;23129;49.662;8.448;2023-03-26T05:30:15;99741.22;;;8.48;100.00
37238;BME280;23129;49.662;8.448;2023-03-26T05:32:47;99737.84;;;8.44;100.00
37238;BME280;23129;49.662;8.448;2023-03-26T05:35:19;99732.63;;;8.44;100.00
37238;BME280;23129;49.662;8.448;2023-03-26T05:37:49;99727.41;;;8.44;100.00
37238;BME280;23129;49.662;8.448;2023-03-26T05:40:21;99723.03;;;8.44;100.00
37238;BME280;23129;49.662;8.448;2023-03-26T05:43:03;99713.44;;;8.43;100.00
37238;BME280;23129;49.662;8.448;2023-03-26T05:46:01;99712.59;;;8.43;100.00
37238;BME280;23129;49.662;8.448;2023-03-26T05:48:31;99700.47;;;8.40;100.00
37238;BME280;23129;49.662;8.448;2023-03-26T05:51:00;99700.53;;;8.37;100.00
37238;BME280;23129;49.662;8.448;2023-03-26T05:53:32;99704.22;;;8.32;100.00
37238;BME280;23129;49.662;8.448;2023-03-26T05:56:19;99701.81;;;8.26;100.00
37238;BME280;23129;49.662;8.448;2023-03-26T05:59:26;99705.47;;;8.18;100.00
37238;BME280;23129;49.662;8.448;2023-03-26T06:02:13;99697.84;;;8.12;100.00
37238;BME280;23129;49.662;8.448;2023-03-26T06:05:08;99693.69;;;8.05;100.00
37238;BME280;23129;49.662;8.448;2023-03-26T06:07:57;99693.88;;;7.99;100.00
37238;BME280;23129;49.662;8.448;2023-03-26T06:10:36;99685.31;;;7.94;100.00
37238;BME280;23129;49.662;8.448;2023-03-26T06:13:05;99671.63;;;7.86;100.00
37238;BME280;23129;49.662;8.448;2023-03-26T06:15:37;99671.81;;;7.80;100.00
37238;BME280;23129;49.662;8.448;2023-03-26T06:18:15;99671.91;;;7.76;100.00
37238;BME280;23129;49.662;8.448;2023-03-26T06:21:07;99663.25;;;7.74;100.00
37238;BME280;23129;49.662;8.448;2023-03-26T06:23:47;99665.06;;;7.72;100.00
37238;BME280;23129;49.662;8.448;2023-03-26T06:26:37;99652.91;;;7.71;100.00
37238;BME280;23129;49.662;8.448;2023-03-26T06:29:18;99650.34;;;7.70;100.00
37238;BME280;23129;49.662;8.448;2023-03-26T06:32:25;99642.53;;;7.68;100.00
37238;BME280;23129;49.662;8.448;2023-03-26T06:34:59;99639.06;;;7.69;100.00
37238;BME280;23129;49.662;8.448;2023-03-26T06:37:28;99638.16;;;7.70;100.00
37238;BME280;23129;49.662;8.448;2023-03-26T06:40:00;99635.53;;;7.70;100.00
37238;BME280;23129;49.662;8.448;2023-03-26T06:42:46;99629.41;;;7.71;100.00
37238;BME280;23129;49.662;8.448;2023-03-26T06:45:53;99618.09;;;7.72;100.00
37238;BME280;23129;49.662;8.448;2023-03-26T06:48:40;99619.78;;;7.73;100.00
37238;BME280;23129;49.662;8.448;2023-03-26T06:51:39;99616.25;;;7.74;100.00
37238;BME280;23129;49.662;8.448;2023-03-26T06:54:48;99624.91;;;7.76;100.00
37238;BME280;23129;49.662;8.448;2023-03-26T06:57:49;99621.38;;;7.77;100.00
37238;BME280;23129;49.662;8.448;2023-03-26T07:00:18;99622.22;;;7.80;100.00
37238;BME280;23129;49.662;8.448;2023-03-26T07:03:05;99616.06;;;7.81;100.00
37238;BME280;23129;49.662;8.448;2023-03-26T07:05:53;99610.75;;;7.84;100.00
37238;BME280;23129;49.662;8.448;2023-03-26T07:08:40;99613.25;;;7.88;100.00
37238;BME280;23129;49.662;8.448;2023-03-26T07:11:27;99602.78;;;7.90;100.00
37238;BME280;23129;49.662;8.448;2023-03-26T07:14:16;99601.78;;;7.94;100.00
37238;BME280;23129;49.662;8.448;2023-03-26T07:17:05;99583.44;;;7.95;100.00
37238;BME280;23129;49.662;8.448;2023-03-26T07:19:45;99579.00;;;7.99;100.00
37238;BME280;23129;49.662;8.448;2023-03-26T07:22:19;99582.38;;;8.01;100.00
37238;BME280;23129;49.662;8.448;2023-03-26T07:25:05;99562.31;;;8.03;100.00
37238;BME280;23129;49.662;8.448;2023-03-26T07:27:50;99576.19;;;8.05;100.00
37238;BME280;23129;49.662;8.448;2023-03-26T07:30:45;99566.72;;;8.01;100.00
37238;BME280;23129;49.662;8.448;2023-03-26T07:33:47;99565.94;;;7.99;100.00
37238;BME280;23129;49.662;8.448;2023-03-26T07:36:32;99551.97;;;8.00;100.00
37238;BME280;23129;49.662;8.448;2023-03-26T07:39:42;99551.06;;;8.01;100.00
37238;BME280;23129;49.662;8.448;2023-03-26T07:42:42;99547.59;;;8.00;100.00
37238;BME280;23129;49.662;8.448;2023-03-26T07:45:38;99544.94;;;8.02;100.00
37238;BME280;23129;49.662;8.448;2023-03-26T07:48:26;99542.34;;;8.02;100.00
37238;BME280;23129;49.662;8.448;2023-03-26T07:51:20;99535.28;;;8.04;100.00
37238;BME280;23129;49.662;8.448;2023-03-26T07:53:53;99527.31;;;8.09;100.00
37238;BME280;23129;49.662;8.448;2023-03-26T07:56:50;99531.59;;;8.11;100.00
37238;BME280;23129;49.662;8.448;2023-03-26T07:59:58;99535.00;;;8.13;100.00
37238;BME280;23129;49.662;8.448;2023-03-26T08:03:19;99537.59;;;8.13;100.00
37238;BME280;23129;49.662;8.448;2023-03-26T08:06:15;99530.69;;;8.12;100.00
37238;BME280;23129;49.662;8.448;2023-03-26T08:09:27;99535.97;;;8.11;100.00
37238;BME280;23129;49.662;8.448;2023-03-26T08:12:43;99542.91;;;8.10;100.00
37238;BME280;23129;49.662;8.448;2023-03-26T08:15:20;99550.75;;;8.10;100.00
37238;BME280;23129;49.662;8.448;2023-03-26T08:17:57;99548.22;;;8.09;100.00
37238;BME280;23129;49.662;8.448;2023-03-26T08:20:36;99544.78;;;8.07;100.00
37238;BME280;23129;49.662;8.448;2023-03-26T08:23:18;99544.88;;;8.04;100.00
37238;BME280;23129;49.662;8.448;2023-03-26T08:25:57;99554.47;;;8.03;100.00
37238;BME280;23129;49.662;8.448;2023-03-26T08:28:40;99536.22;;;8.01;100.00
37238;BME280;23129;49.662;8.448;2023-03-26T08:31:15;99544.97;;;8.00;100.00
37238;BME280;23129;49.662;8.448;2023-03-26T08:33:45;99538.09;;;7.98;100.00
37238;BME280;23129;49.662;8.448;2023-03-26T08:36:14;99543.38;;;7.96;100.00
37238;BME280;23129;49.662;8.448;2023-03-26T08:38:44;99518.22;;;7.94;100.00
37238;BME280;23129;49.662;8.448;2023-03-26T08:41:58;99518.31;;;7.91;100.00
37238;BME280;23129;49.662;8.448;2023-03-26T08:45:11;99507.91;;;7.89;100.00
37238;BME280;23129;49.662;8.448;2023-03-26T08:55:23;99482.19;;;8.05;100.00
37238;BME280;23129;49.662;8.448;2023-03-26T09:05:29;99471.72;;;8.32;100.00
37238;BME280;23129;49.662;8.448;2023-03-26T09:11:42;99475.94;;;8.34;100.00
37238;BME280;23129;49.662;8.448;2023-03-26T09:14:38;99474.44;;;8.29;100.00
37238;BME280;23129;49.662;8.448;2023-03-26T09:17:55;99472.78;;;8.26;100.00
37238;BME280;23129;49.662;8.448;2023-03-26T09:20:59;99461.28;;;8.30;100.00
37238;BME280;23129;49.662;8.448;2023-03-26T09:24:33;99461.03;;;8.38;100.00
37238;BME280;23129;49.662;8.448;2023-03-26T09:27:26;99457.44;;;8.42;100.00
37238;BME280;23129;49.662;8.448;2023-03-26T09:30:28;99443.34;;;8.46;100.00
37238;BME280;23129;49.662;8.448;2023-03-26T09:33:30;99444.28;;;8.45;100.00
37238;BME280;23129;49.662;8.448;2023-03-26T09:36:30;99443.34;;;8.46;100.00
37238;BME280;23129;49.662;8.448;2023-03-26T09:39:08;99446.84;;;8.47;100.00
37238;BME280;23129;49.662;8.448;2023-03-26T09:41:55;99440.69;;;8.48;100.00
37238;BME280;23129;49.662;8.448;2023-03-26T09:51:19;99445.97;;;8.46;100.00
37238;BME280;23129;49.662;8.448;2023-03-26T09:56:56;99460.66;;;8.50;100.00
37238;BME280;23129;49.662;8.448;2023-03-26T09:59:49;99458.81;;;8.52;100.00
37238;BME280;23129;49.662;8.448;2023-03-26T10:02:41;99446.66;;;8.51;100.00
37238;BME280;23129;49.662;8.448;2023-03-26T10:05:34;99441.09;;;8.60;100.00
37238;BME280;23129;49.662;8.448;2023-03-26T10:08:34;99433.31;;;8.82;100.00
37238;BME280;23129;49.662;8.448;2023-03-26T10:11:10;99434.19;;;9.06;100.00
37238;BME280;23129;49.662;8.448;2023-03-26T10:13:57;99406.97;;;9.34;100.00
37238;BME280;23129;49.662;8.448;2023-03-26T10:16:36;99413.50;;;9.66;100.00
37238;BME280;23129;49.662;8.448;2023-03-26T10:19:26;99414.16;;;9.93;100.00
37238;BME280;23129;49.662;8.448;2023-03-26T10:22:08;99417.16;;;10.25;100.00
37238;BME280;23129;49.662;8.448;2023-03-26T10:27:53;99407.78;;;11.55;100.00
37238;BME280;23129;49.662;8.448;2023-03-26T10:30:56;99399.88;;;11.91;100.00
37238;BME280;23129;49.662;8.448;2023-03-26T10:33:39;99381.56;;;12.40;100.00
37238;BME280;23129;49.662;8.448;2023-03-26T10:36:26;99374.22;;;12.96;100.00
37238;BME280;23129;49.662;8.448;2023-03-26T10:39:23;99375.06;;;13.44;100.00
37238;BME280;23129;49.662;8.448;2023-03-26T10:42:30;99369.78;;;13.28;100.00
37238;BME280;23129;49.662;8.448;2023-03-26T10:45:17;99356.69;;;12.95;100.00
37238;BME280;23129;49.662;8.448;2023-03-26T10:48:19;99358.34;;;12.48;100.00
37238;BME280;23129;49.662;8.448;2023-03-26T10:51:26;99361.13;;;12.12;100.00
37238;BME280;23129;49.662;8.448;2023-03-26T10:54:06;99359.09;;;12.17;100.00
37238;BME280;23129;49.662;8.448;2023-03-26T10:56:39;99385.16;;;12.04;100.00
37238;BME280;23129;49.662;8.448;2023-03-26T10:59:13;99373.94;;;11.83;100.00
37238;BME280;23129;49.662;8.448;2023-03-26T11:01:56;99377.25;;;11.52;100.00
37238;BME280;23129;49.662;8.448;2023-03-26T11:04:39;99382.78;;;11.10;100.00
37238;BME280;23129;49.662;8.448;2023-03-26T11:07:19;99374.50;;;10.81;100.00
37238;BME280;23129;49.662;8.448;2023-03-26T11:09:58;99382.97;;;10.67;100.00
37238;BME280;23129;49.662;8.448;2023-03-26T11:12:36;99373.38;;;10.68;100.00
37238;BME280;23129;49.662;8.448;2023-03-26T11:15:19;99368.53;;;10.96;100.00
37238;BME280;23129;49.662;8.448;2023-03-26T11:18:01;99361.59;;;10.95;100.00
37238;BME280;23129;49.662;8.448;2023-03-26T11:20:37;99361.44;;;10.99;100.00
37238;BME280;23129;49.662;8.448;2023-03-26T11:23:35;99352.22;;;11.09;100.00
37238;BME280;23129;49.662;8.448;2023-03-26T11:26:15;99351.53;;;11.59;100.00
37238;BME280;23129;49.662;8.448;2023-03-26T11:29:29;99333.75;;;12.16;100.00
37238;BME280;23129;49.662;8.448;2023-03-26T11:32:04;99338.50;;;12.43;100.00
37238;BME280;23129;49.662;8.448;2023-03-26T11:34:37;99327.34;;;12.38;100.00
37238;BME280;23129;49.662;8.448;2023-03-26T11:37:14;99336.84;;;12.24;100.00
37238;BME280;23129;49.662;8.448;2023-03-26T11:39:50;99352.00;;;12.19;100.00
37238;BME280;23129;49.662;8.448;2023-03-26T11:42:23;99345.38;;;12.12;100.00
37238;BME280;23129;49.662;8.448;2023-03-26T11:44:54;99346.59;;;12.05;100.00
37238;BME280;23129;49.662;8.448;2023-03-26T11:47:31;99353.59;;;11.88;100.00
37238;BME280;23129;49.662;8.448;2023-03-26T11:50:02;99351.84;;;11.87;100.00
37238;BME280;23129;49.662;8.448;2023-03-26T11:52:31;99372.19;;;12.19;100.00
37238;BME280;23129;49.662;8.448;2023-03-26T11:55:01;99366.03;;;12.69;100.00
37238;BME280;23129;49.662;8.448;2023-03-26T11:57:31;99353.81;;;13.15;100.00
37238;BME280;23129;49.662;8.448;2023-03-26T12:00:05;99350.53;;;13.58;100.00
37238;BME280;23129;49.662;8.448;2023-03-26T12:02:42;99343.97;;;13.95;100.00
37238;BME280;23129;49.662;8.448;2023-03-26T12:05:17;99376.53;;;14.24;100.00
37238;BME280;23129;49.662;8.448;2023-03-26T12:07:52;99352.31;;;14.32;100.00
37238;BME280;23129;49.662;8.448;2023-03-26T12:10:29;99353.16;;;14.18;100.00
37238;BME280;23129;49.662;8.448;2023-03-26T12:13:04;99352.28;;;14.03;100.00
37238;BME280;23129;49.662;8.448;2023-03-26T12:15:42;99341.72;;;13.89;100.00
37238;BME280;23129;49.662;8.448;2023-03-26T12:18:23;99338.53;;;13.98;100.00
37238;BME280;23129;49.662;8.448;2023-03-26T12:21:04;99340.66;;;14.36;100.00
37238;BME280;23129;49.662;8.448;2023-03-26T12:23:43;99336.28;;;14.35;100.00
37238;BME280;23129;49.662;8.448;2023-03-26T12:26:16;99342.88;;;14.13;100.00
37238;BME280;23129;49.662;8.448;2023-03-26T12:28:47;99316.28;;;13.88;100.00
37238;BME280;23129;49.662;8.448;2023-03-26T12:31:17;99321.59;;;13.72;100.00
37238;BME280;23129;49.662;8.448;2023-03-26T12:34:05;99334.13;;;13.68;100.00
37238;BME280;23129;49.662;8.448;2023-03-26T12:36:35;99339.00;;;13.60;100.00
37238;BME280;23129;49.662;8.448;2023-03-26T12:39:33;99327.31;;;13.50;100.00
37238;BME280;23129;49.662;8.448;2023-03-26T12:42:30;99334.97;;;13.39;100.00
37238;BME280;23129;49.662;8.448;2023-03-26T12:45:21;99351.59;;;13.23;100.00
37238;BME280;23129;49.662;8.448;2023-03-26T12:47:51;99330.28;;;13.12;100.00
37238;BME280;23129;49.662;8.448;2023-03-26T12:50:39;99335.22;;;13.02;100.00
37238;BME280;23129;49.662;8.448;2023-03-26T12:53:36;99346.34;;;12.92;100.00
37238;BME280;23129;49.662;8.448;2023-03-26T12:56:17;99361.69;;;12.34;100.00
37238;BME280;23129;49.662;8.448;2023-03-26T12:59:08;99352.13;;;11.81;100.00
37238;BME280;23129;49.662;8.448;2023-03-26T13:01:52;99351.84;;;11.53;100.00
37238;BME280;23129;49.662;8.448;2023-03-26T13:04:41;99338.50;;;11.92;100.00
37238;BME280;23129;49.662;8.448;2023-03-26T13:07:45;99336.31;;;12.67;100.00
37238;BME280;23129;49.662;8.448;2023-03-26T13:10:43;99332.69;;;13.33;100.00
37238;BME280;23129;49.662;8.448;2023-03-26T13:16:35;99330.81;;;13.35;100.00
37238;BME280;23129;49.662;8.448;2023-03-26T13:19:08;99331.34;;;13.26;100.00
37238;BME280;23129;49.662;8.448;2023-03-26T13:21:53;99331.91;;;13.31;100.00
37238;BME280;23129;49.662;8.448;2023-03-26T13:24:37;99332.31;;;13.39;100.00
37238;BME280;23129;49.662;8.448;2023-03-26T13:27:25;99328.25;;;13.63;100.00
37238;BME280;23129;49.662;8.448;2023-03-26T13:30:02;99322.50;;;13.87;100.00
37238;BME280;23129;49.662;8.448;2023-03-26T13:32:50;99315.19;;;14.06;100.00
37238;BME280;23129;49.662;8.448;2023-03-26T13:35:29;99303.91;;;14.19;100.00
37238;BME280;23129;49.662;8.448;2023-03-26T13:38:07;99314.53;;;14.17;100.00
37238;BME280;23129;49.662;8.448;2023-03-26T13:40:48;99304.66;;;14.06;100.00
37238;BME280;23129;49.662;8.448;2023-03-26T13:43:49;99307.06;;;13.95;100.00
37238;BME280;23129;49.662;8.448;2023-03-26T13:46:28;99309.41;;;13.85;100.00
37238;BME280;23129;49.662;8.448;2023-03-26T13:49:03;99299.31;;;13.78;100.00
37238;BME280;23129;49.662;8.448;2023-03-26T13:51:38;99294.25;;;13.75;100.00
37238;BME280;23129;49.662;8.448;2023-03-26T13:54:17;99292.72;;;13.70;100.00
37238;BME280;23129;49.662;8.448;2023-03-26T13:56:53;99294.78;;;13.65;100.00
37238;BME280;23129;49.662;8.448;2023-03-26T13:59:30;99301.06;;;13.63;100.00
37238;BME280;23129;49.662;8.448;2023-03-26T14:02:08;99285.25;;;13.63;100.00
37238;BME280;23129;49.662;8.448;2023-03-26T14:04:42;99286.94;;;13.64;100.00
37238;BME280;23129;49.662;8.448;2023-03-26T14:07:16;99282.56;;;13.64;100.00
37238;BME280;23129;49.662;8.448;2023-03-26T14:09:52;99286.09;;;13.63;99.79
37238;BME280;23129;49.662;8.448;2023-03-26T14:12:32;99282.75;;;13.61;99.16
37238;BME280;23129;49.662;8.448;2023-03-26T14:15:05;99286.09;;;13.63;100.00
37238;BME280;23129;49.662;8.448;2023-03-26T14:17:42;99278.13;;;13.65;100.00
37238;BME280;23129;49.662;8.448;2023-03-26T14:20:58;99274.47;;;13.67;100.00
37238;BME280;23129;49.662;8.448;2023-03-26T14:23:59;99273.53;;;13.68;100.00
37238;BME280;23129;49.662;8.448;2023-03-26T14:26:54;99272.31;;;13.74;100.00
37238;BME280;23129;49.662;8.448;2023-03-26T14:29:33;99270.72;;;13.86;98.53
37238;BME280;23129;49.662;8.448;2023-03-26T14:32:44;99265.28;;;13.89;97.34
37238;BME280;23129;49.662;8.448;2023-03-26T14:35:31;99266.97;;;13.90;97.56
37238;BME280;23129;49.662;8.448;2023-03-26T14:38:52;99269.00;;;13.85;97.07
37238;BME280;23129;49.662;8.448;2023-03-26T14:41:31;99255.38;;;13.78;95.54
37238;BME280;23129;49.662;8.448;2023-03-26T14:44:50;99269.00;;;13.70;96.68
37238;BME280;23129;49.662;8.448;2023-03-26T14:47:24;99254.69;;;13.60;93.49